Time;durP1;ratioP1;P1;durP2;ratioP2;P2;SDS_P1;SDS_P2;PMS_P1;PMS_P2;Temp;Humidity;BMP_temperature;BMP_pressure;BME280_temperature;BME280_humidity;BME280_pressure;Samples;Min_cycle;Max_cycle;Signal;HPM_P1;HPM_P2
2021/07/22 00:01:21;;;;;;;7.57;4.68;;;;;;;16.06;46.69;102308.28;5050149;28;20107;-65
2021/07/22 00:03:46;;;;;;;9.43;5.22;;;;;;;15.99;46.71;102312.94;5047778;28;20745;-66
2021/07/22 00:06:11;;;;;;;7.57;5.00;;;;;;;16.02;46.54;102304.06;5048125;28;20044;-65
2021/07/22 00:08:39;;;;;;;6.90;4.15;;;;;;;16.07;46.43;102309.16;5046009;28;20060;-66
2021/07/22 00:11:08;;;;;;;7.45;4.50;;;;;;;16.05;45.86;102305.72;5049946;28;20505;-67
2021/07/22 00:13:34;;;;;;;8.73;4.18;;;;;;;15.97;45.99;102309.50;5050751;28;20029;-66
2021/07/22 00:16:00;;;;;;;7.78;3.92;;;;;;;16.04;45.47;102304.00;5050255;28;20043;-65
2021/07/22 00:18:26;;;;;;;7.15;4.80;;;;;;;16.11;45.85;102300.19;5050727;28;20304;-66
2021/07/22 00:20:51;;;;;;;6.18;4.63;;;;;;;16.14;45.73;102298.28;5053421;28;20041;-67
2021/07/22 00:23:17;;;;;;;5.97;3.67;;;;;;;16.26;45.30;102299.53;5051430;28;20373;-66
2021/07/22 00:25:42;;;;;;;9.07;3.97;;;;;;;16.25;45.63;102297.84;5053499;28;20033;-65
2021/07/22 00:28:09;;;;;;;9.90;4.70;;;;;;;16.28;45.69;102292.44;5053450;28;20488;-63
2021/07/22 00:30:34;;;;;;;8.18;4.35;;;;;;;16.26;45.21;102294.25;5053803;28;20293;-65
2021/07/22 00:33:01;;;;;;;8.65;5.13;;;;;;;16.17;45.11;102295.50;5051665;28;20036;-65
2021/07/22 00:35:28;;;;;;;6.90;4.75;;;;;;;16.08;45.91;102293.25;5053497;28;20375;-65
2021/07/22 00:37:54;;;;;;;7.40;4.53;;;;;;;16.06;45.65;102281.03;5053315;28;20078;-65
2021/07/22 00:40:20;;;;;;;7.80;4.10;;;;;;;16.10;45.90;102283.50;5050439;28;20044;-66
2021/07/22 00:43:03;;;;;;;6.97;3.83;;;;;;;16.12;45.81;102291.34;5053518;28;20036;-64
2021/07/22 00:45:30;;;;;;;7.25;4.32;;;;;;;16.09;45.75;102283.56;5052307;28;20108;-67
2021/07/22 00:47:59;;;;;;;7.63;4.10;;;;;;;16.15;45.77;102285.94;5052654;28;20037;-67
2021/07/22 00:50:25;;;;;;;6.07;4.72;;;;;;;16.20;45.93;102295.41;5054435;28;20090;-67
2021/07/22 00:52:51;;;;;;;7.93;3.78;;;;;;;16.19;45.55;102292.81;5051741;28;20516;-68
2021/07/22 00:55:18;;;;;;;10.18;4.40;;;;;;;16.21;44.99;102294.47;5049443;28;20064;-66
2021/07/22 00:57:44;;;;;;;9.23;4.18;;;;;;;16.08;45.02;102287.13;5053690;28;20079;-66
2021/07/22 01:00:10;;;;;;;12.45;4.72;;;;;;;15.99;45.56;102278.66;5051319;28;20037;-66
2021/07/22 01:02:40;;;;;;;7.15;4.10;;;;;;;15.93;46.09;102281.53;5053071;28;20025;-65
2021/07/22 01:05:06;;;;;;;7.82;4.38;;;;;;;15.89;46.47;102285.22;5053951;28;20029;-66
2021/07/22 01:07:32;;;;;;;5.50;3.55;;;;;;;15.70;46.97;102285.06;5053488;28;20024;-66
2021/07/22 01:09:57;;;;;;;5.68;4.15;;;;;;;15.82;45.95;102283.75;5051381;28;20028;-66
2021/07/22 01:12:23;;;;;;;9.48;4.32;;;;;;;15.71;46.18;102281.53;5054763;28;20386;-65
2021/07/22 01:14:51;;;;;;;4.43;3.30;;;;;;;15.82;45.43;102283.75;5050613;28;20048;-67
2021/07/22 01:17:46;;;;;;;6.03;2.95;;;;;;;15.86;44.66;102280.03;5052334;28;20068;-67
2021/07/22 01:20:21;;;;;;;4.68;3.00;;;;;;;15.90;44.75;102275.50;5052392;28;20028;-66
2021/07/22 01:22:50;;;;;;;8.70;3.67;;;;;;;15.86;44.23;102280.03;5052732;28;20037;-66
2021/07/22 01:25:18;;;;;;;6.32;3.00;;;;;;;16.06;43.87;102283.69;5054150;28;20044;-67
2021/07/22 01:27:44;;;;;;;6.75;2.90;;;;;;;16.10;43.81;102277.38;5052353;28;20043;-66
2021/07/22 01:30:12;;;;;;;7.32;2.60;;;;;;;16.14;43.77;102276.31;5050520;28;20024;-67
2021/07/22 01:32:39;;;;;;;4.88;2.58;;;;;;;16.17;43.73;102278.81;5054196;28;20033;-68
2021/07/22 01:35:06;;;;;;;7.22;3.08;;;;;;;16.13;43.98;102279.88;5049612;28;20033;-67
2021/07/22 01:37:31;;;;;;;5.35;2.78;;;;;;;16.18;43.55;102280.56;5052798;28;20036;-67
2021/07/22 01:39:59;;;;;;;6.15;2.70;;;;;;;16.17;43.47;102282.31;5052512;28;20025;-67
2021/07/22 01:42:25;;;;;;;7.28;2.65;;;;;;;16.23;43.61;102283.84;5053259;28;20094;-66
2021/07/22 01:44:50;;;;;;;6.28;2.85;;;;;;;16.31;43.73;102283.53;5051081;28;20040;-68
2021/07/22 01:47:17;;;;;;;4.70;2.47;;;;;;;16.25;43.53;102282.00;5049609;28;20031;-68
2021/07/22 01:49:44;;;;;;;7.65;2.90;;;;;;;16.03;44.65;102270.63;5049912;28;20063;-69
2021/07/22 01:52:11;;;;;;;3.35;2.80;;;;;;;15.88;44.83;102270.28;5059161;28;20075;-71
2021/07/22 01:54:39;;;;;;;5.15;2.60;;;;;;;15.83;44.46;102267.00;5052102;28;20028;-68
2021/07/22 01:57:06;;;;;;;4.20;1.70;;;;;;;15.84;44.69;102267.84;5038305;28;20155;-69
2021/07/22 01:59:36;;;;;;;5.97;2.47;;;;;;;15.75;44.54;102255.88;5051883;28;20048;-70
2021/07/22 02:02:04;;;;;;;6.05;2.20;;;;;;;15.75;44.67;102262.03;5052214;28;20059;-69
2021/07/22 02:04:34;;;;;;;3.35;2.10;;;;;;;15.80;44.37;102262.69;5049708;28;20032;-69
2021/07/22 02:07:00;;;;;;;3.00;2.10;;;;;;;15.80;44.34;102260.06;5052172;28;20039;-68
2021/07/22 02:09:27;;;;;;;5.00;2.60;;;;;;;15.73;44.86;102252.47;5050229;28;20036;-69
2021/07/22 02:11:56;;;;;;;3.95;2.42;;;;;;;15.64;44.68;102258.97;5051530;28;20108;-69
2021/07/22 02:14:23;;;;;;;6.32;2.35;;;;;;;15.56;44.72;102261.03;5050699;28;20067;-69
2021/07/22 02:16:51;;;;;;;3.40;2.28;;;;;;;15.54;44.82;102260.25;5045949;28;20162;-69
2021/07/22 02:19:17;;;;;;;6.05;2.65;;;;;;;15.47;45.12;102262.25;5058971;28;20052;-69
2021/07/22 02:21:44;;;;;;;3.58;2.70;;;;;;;15.50;45.30;102266.53;5051962;28;20492;-68
2021/07/22 02:24:12;;;;;;;4.10;2.10;;;;;;;15.61;45.28;102271.41;5052161;28;20032;-69
2021/07/22 02:26:50;;;;;;;5.10;2.72;;;;;;;15.61;44.96;102274.03;5052113;28;20032;-68
2021/07/22 02:29:17;;;;;;;4.60;2.45;;;;;;;15.63;45.53;102272.19;5039011;28;20067;-69
2021/07/22 02:31:45;;;;;;;4.50;3.05;;;;;;;15.31;46.67;102279.59;5047956;28;20509;-68
2021/07/22 02:34:13;;;;;;;4.25;2.63;;;;;;;15.38;46.33;102275.78;5047209;28;20025;-69
2021/07/22 02:36:39;;;;;;;3.67;2.97;;;;;;;15.46;46.29;102273.72;5052094;28;20617;-68
2021/07/22 02:39:26;;;;;;;6.85;2.80;;;;;;;15.45;46.22;102273.78;5051575;28;20469;-65
2021/07/22 02:41:53;;;;;;;5.95;2.95;;;;;;;15.47;46.55;102272.78;5049578;28;20118;-66
2021/07/22 02:44:20;;;;;;;3.45;2.80;;;;;;;15.55;46.39;102283.03;5044578;28;20538;-63
2021/07/22 02:46:58;;;;;;;5.03;3.15;;;;;;;15.48;46.45;102276.28;5050562;28;20027;-64
2021/07/22 02:49:23;;;;;;;7.93;3.63;;;;;;;15.52;46.42;102281.38;5050115;28;20103;-66
2021/07/22 02:51:49;;;;;;;3.58;1.92;;;;;;;15.59;46.58;102282.88;5053153;28;20033;-66
2021/07/22 02:54:16;;;;;;;6.40;2.50;;;;;;;15.62;46.76;102281.00;5050322;28;20037;-69
2021/07/22 02:56:45;;;;;;;5.97;2.72;;;;;;;15.67;46.48;102287.84;5052275;28;20528;-69
2021/07/22 02:59:18;;;;;;;4.13;2.55;;;;;;;15.53;47.00;102284.88;5050948;28;20128;-67
2021/07/22 03:01:45;;;;;;;6.97;3.10;;;;;;;15.49;47.00;102286.78;5036883;28;20564;-67
2021/07/22 03:04:17;;;;;;;5.50;2.28;;;;;;;15.49;47.15;102280.66;5050668;28;20117;-66
2021/07/22 03:06:51;;;;;;;5.68;3.22;;;;;;;15.55;46.49;102280.38;5053049;28;20028;-70
2021/07/22 03:09:17;;;;;;;4.07;2.63;;;;;;;15.53;46.81;102277.00;5051438;28;20032;-69
2021/07/22 03:11:46;;;;;;;5.68;3.38;;;;;;;15.54;46.22;102283.97;5050350;28;20037;-70
2021/07/22 03:14:11;;;;;;;5.60;2.00;;;;;;;15.52;46.35;102289.28;5049699;28;20294;-70
2021/07/22 03:16:41;;;;;;;3.40;2.45;;;;;;;15.50;46.50;102277.94;5051885;28;20033;-70
2021/07/22 03:19:22;;;;;;;4.25;1.77;;;;;;;15.54;46.39;102287.44;5048619;28;20033;-67
2021/07/22 03:21:54;;;;;;;3.90;2.92;;;;;;;15.46;46.45;102289.53;5049987;28;20098;-68
2021/07/22 03:24:39;;;;;;;4.15;2.85;;;;;;;15.42;46.34;102279.19;5047983;28;20036;-67
2021/07/22 03:27:23;;;;;;;3.60;2.03;;;;;;;15.34;46.87;102287.34;5055732;28;20025;-68
2021/07/22 03:29:49;;;;;;;3.17;1.83;;;;;;;15.32;46.81;102278.66;5053077;28;20094;-67
2021/07/22 03:32:15;;;;;;;2.97;2.00;;;;;;;15.40;46.59;102275.75;5052157;28;20099;-66
2021/07/22 03:34:41;;;;;;;6.45;2.90;;;;;;;15.34;46.28;102285.56;5049157;28;20021;-68
2021/07/22 03:37:17;;;;;;;4.57;1.95;;;;;;;15.33;46.59;102283.88;5050051;28;20064;-68
2021/07/22 03:39:44;;;;;;;4.68;3.00;;;;;;;15.36;46.49;102286.38;5048088;28;20028;-66
2021/07/22 03:42:10;;;;;;;5.22;2.47;;;;;;;15.35;46.53;102268.88;5048042;28;20239;-67
2021/07/22 03:44:55;;;;;;;5.97;2.58;;;;;;;15.43;46.29;102278.25;5044176;28;20052;-67
2021/07/22 03:47:23;;;;;;;3.72;2.42;;;;;;;15.44;46.56;102275.56;5047348;28;20176;-67
2021/07/22 03:49:51;;;;;;;6.90;2.70;;;;;;;15.43;46.09;102272.97;5047943;28;20033;-67
2021/07/22 03:52:26;;;;;;;4.93;2.60;;;;;;;15.49;46.55;102278.00;5048853;28;20037;-68
2021/07/22 03:54:55;;;;;;;5.82;2.83;;;;;;;15.32;46.72;102274.22;5054175;28;20178;-67
2021/07/22 03:57:21;;;;;;;4.43;2.35;;;;;;;15.35;46.79;102278.56;5069507;28;20366;-67
2021/07/22 03:59:47;;;;;;;4.85;2.95;;;;;;;15.48;47.00;102278.91;5054234;28;20117;-66
2021/07/22 04:02:13;;;;;;;3.97;2.13;;;;;;;15.46;47.01;102272.84;5054071;28;20036;-67
2021/07/22 04:04:43;;;;;;;3.95;2.17;;;;;;;15.40;47.01;102271.31;5053108;28;20025;-66
2021/07/22 04:07:10;;;;;;;4.50;2.80;;;;;;;15.50;47.17;102277.09;5054187;28;20574;-67
2021/07/22 04:09:54;;;;;;;6.00;2.63;;;;;;;15.30;46.92;102278.69;5057798;28;20535;-67
2021/07/22 04:12:38;;;;;;;5.28;3.28;;;;;;;15.48;46.49;102271.91;5054004;28;20035;-66
2021/07/22 04:15:28;;;;;;;4.03;2.80;;;;;;;15.45;46.64;102279.91;5020037;28;20167;-64
2021/07/22 04:18:04;;;;;;;6.38;3.28;;;;;;;15.46;47.19;102276.38;5055395;28;20044;-65
2021/07/22 04:20:48;;;;;;;5.28;3.22;;;;;;;15.55;47.17;102278.63;5053122;28;20055;-67
2021/07/22 04:23:20;;;;;;;9.27;2.55;;;;;;;15.64;46.71;102274.78;5051298;28;20048;-66
2021/07/22 04:26:04;;;;;;;6.03;2.65;;;;;;;15.71;46.05;102280.69;5054315;28;20047;-66
2021/07/22 04:28:46;;;;;;;6.57;3.25;;;;;;;15.84;45.99;102276.63;5051559;28;20051;-66
2021/07/22 04:31:16;;;;;;;4.03;2.53;;;;;;;15.86;46.44;102274.75;5053884;28;20036;-67
2021/07/22 04:34:17;;;;;;;6.75;3.28;;;;;;;15.96;46.18;102281.41;5010919;28;20041;-64
2021/07/22 04:37:06;;;;;;;4.80;3.03;;;;;;;15.96;45.74;102275.28;5052414;28;20516;-65
2021/07/22 04:39:50;;;;;;;4.93;3.45;;;;;;;15.99;45.39;102280.41;5054168;28;20025;-64
2021/07/22 04:42:35;;;;;;;7.10;3.17;;;;;;;16.05;45.67;102279.34;5052812;28;20055;-67
2021/07/22 04:45:24;;;;;;;5.55;2.67;;;;;;;15.99;45.07;102283.94;5051679;28;20500;-62
2021/07/22 04:48:19;;;;;;;5.15;3.45;;;;;;;16.09;45.04;102287.06;5052461;28;20052;-66
2021/07/22 04:51:08;;;;;;;5.82;4.00;;;;;;;16.00;45.20;102283.03;5026520;28;20283;-66
2021/07/22 04:53:54;;;;;;;6.38;3.00;;;;;;;16.05;45.58;102284.63;5042931;28;20060;-67
2021/07/22 04:56:21;;;;;;;7.90;3.25;;;;;;;16.06;45.59;102287.19;5052575;28;20032;-67
2021/07/22 04:58:47;;;;;;;5.03;3.30;;;;;;;16.14;45.35;102289.50;5053330;28;20464;-68
2021/07/22 05:01:22;;;;;;;3.28;2.60;;;;;;;16.20;45.42;102281.34;5053089;28;20549;-67
2021/07/22 05:03:48;;;;;;;3.80;2.85;;;;;;;16.18;45.21;102291.09;5053157;28;20033;-68
2021/07/22 05:06:17;;;;;;;6.88;2.92;;;;;;;16.19;45.29;102287.53;5051737;28;20173;-68
2021/07/22 05:09:09;;;;;;;5.68;3.40;;;;;;;16.33;45.14;102284.31;5049085;28;20080;-67
2021/07/22 05:11:54;;;;;;;5.88;2.97;;;;;;;16.32;44.74;102286.09;5053156;28;20174;-67
2021/07/22 05:14:34;;;;;;;14.32;2.75;;;;;;;16.42;43.95;102284.81;5047810;28;20036;-67
2021/07/22 05:17:18;;;;;;;5.18;2.75;;;;;;;16.48;43.99;102285.44;5051197;28;20043;-69
2021/07/22 05:19:56;;;;;;;6.18;2.88;;;;;;;16.43;44.53;102285.66;5052685;28;20123;-67
2021/07/22 05:22:48;;;;;;;6.25;2.83;;;;;;;16.49;44.78;102287.16;5036439;28;20048;-68
2021/07/22 05:25:32;;;;;;;4.88;2.30;;;;;;;16.48;45.17;102288.09;5051328;28;20067;-68
2021/07/22 05:28:06;;;;;;;6.97;2.78;;;;;;;16.51;43.31;102282.66;5051102;28;20322;-68
2021/07/22 05:30:50;;;;;;;3.78;2.80;;;;;;;16.37;44.02;102291.19;5058635;28;20037;-65
2021/07/22 05:33:21;;;;;;;2.47;2.28;;;;;;;16.75;43.28;102292.19;5053445;28;20478;-67
2021/07/22 05:35:54;;;;;;;3.75;2.05;;;;;;;16.82;42.25;102285.75;5051825;28;20084;-67
2021/07/22 05:38:37;;;;;;;3.92;1.67;;;;;;;16.80;41.70;102284.06;5048607;28;20417;-67
2021/07/22 05:41:05;;;;;;;3.78;2.20;;;;;;;16.97;41.54;102284.19;5049192;28;20048;-69
2021/07/22 05:43:31;;;;;;;8.60;2.00;;;;;;;16.75;42.38;102286.91;5050257;28;20037;-68
2021/07/22 05:45:57;;;;;;;3.10;2.00;;;;;;;16.80;42.41;102278.78;5051520;28;20040;-69
2021/07/22 05:48:23;;;;;;;7.55;1.80;;;;;;;16.92;42.61;102288.81;5066115;28;20029;-66
2021/07/22 05:50:52;;;;;;;7.18;1.92;;;;;;;17.19;41.51;102289.34;5052794;28;20047;-64
2021/07/22 05:53:18;;;;;;;2.88;1.83;;;;;;;17.19;40.71;102297.28;5053671;28;20063;-69
2021/07/22 05:55:44;;;;;;;1.83;1.45;;;;;;;17.45;40.23;102284.66;5052603;28;20334;-67
2021/07/22 05:58:10;;;;;;;2.47;1.55;;;;;;;17.52;39.95;102291.41;5049926;28;20075;-69
2021/07/22 06:00:36;;;;;;;2.65;1.65;;;;;;;17.27;39.77;102296.94;5058216;28;20416;-65
2021/07/22 06:03:06;;;;;;;4.60;1.33;;;;;;;17.41;39.37;102296.31;5050568;28;20103;-66
2021/07/22 06:05:33;;;;;;;3.63;0.98;;;;;;;17.21;38.79;102292.78;5053488;28;20067;-65
2021/07/22 06:08:00;;;;;;;2.92;1.55;;;;;;;17.41;38.34;102286.59;5051006;28;20037;-64
2021/07/22 06:10:26;;;;;;;3.65;1.40;;;;;;;17.58;37.75;102292.88;5052710;28;20048;-66
2021/07/22 06:12:54;;;;;;;1.90;1.20;;;;;;;17.69;36.81;102289.72;5052118;28;20283;-67
2021/07/22 06:15:19;;;;;;;3.63;1.05;;;;;;;17.61;37.26;102285.69;5052808;28;20033;-68
2021/07/22 06:17:45;;;;;;;4.20;1.27;;;;;;;17.09;37.28;102285.44;5049698;28;20039;-68
2021/07/22 06:20:11;;;;;;;1.80;1.05;;;;;;;17.73;36.51;102294.81;5051466;28;20397;-67
2021/07/22 06:22:36;;;;;;;1.38;0.98;;;;;;;17.75;36.21;102298.22;5049365;28;20149;-68
2021/07/22 06:25:03;;;;;;;1.77;1.25;;;;;;;18.03;35.38;102292.47;5053516;28;20045;-68
2021/07/22 06:27:28;;;;;;;4.68;1.63;;;;;;;17.83;35.89;102298.72;5050537;28;20505;-68
2021/07/22 06:29:54;;;;;;;1.60;0.60;;;;;;;17.90;35.14;102293.16;5052121;28;20123;-68
2021/07/22 06:32:19;;;;;;;1.88;0.95;;;;;;;17.86;35.20;102297.72;5052120;28;20067;-68
2021/07/22 06:34:45;;;;;;;2.97;1.33;;;;;;;18.04;35.82;102296.81;5051817;28;20508;-68
2021/07/22 06:37:10;;;;;;;3.28;0.90;;;;;;;18.41;34.58;102288.88;5056257;28;20032;-68
2021/07/22 06:39:47;;;;;;;3.42;1.45;;;;;;;18.76;34.54;102297.59;5052531;28;20635;-68
2021/07/22 06:42:12;;;;;;;4.28;1.20;;;;;;;18.97;33.30;102293.00;5053255;28;20123;-68
2021/07/22 06:44:38;;;;;;;3.22;1.10;;;;;;;19.66;32.30;102291.91;5056218;28;20048;-68
2021/07/22 06:47:03;;;;;;;2.65;1.08;;;;;;;20.59;30.32;102292.72;5051572;28;20029;-68
2021/07/22 06:49:29;;;;;;;3.92;0.82;;;;;;;20.87;29.51;102291.06;5057313;22;20622;-66
2021/07/22 06:51:55;;;;;;;2.08;1.05;;;;;;;21.51;28.49;102286.16;5027032;28;20037;-68
2021/07/22 06:54:21;;;;;;;1.38;0.82;;;;;;;22.12;27.01;102287.47;5041600;28;20406;-66
2021/07/22 06:56:47;;;;;;;2.65;0.77;;;;;;;23.55;25.45;102290.84;5037626;28;20026;-66
2021/07/22 06:59:13;;;;;;;2.85;0.85;;;;;;;25.14;23.05;102286.78;5037264;28;20158;-67
2021/07/22 07:01:38;;;;;;;2.05;0.60;;;;;;;26.81;21.72;102282.66;5041918;28;20353;-66
2021/07/22 07:04:04;;;;;;;3.25;1.00;;;;;;;26.89;21.49;102288.16;5041808;28;20116;-68
2021/07/22 07:06:33;;;;;;;1.65;0.57;;;;;;;25.45;22.25;102288.66;5037437;28;20033;-68
2021/07/22 07:08:58;;;;;;;4.88;0.88;;;;;;;24.65;23.11;102286.97;5036029;28;20412;-66
2021/07/22 07:11:24;;;;;;;1.58;1.23;;;;;;;25.32;23.01;102279.91;5041802;28;20033;-68
2021/07/22 07:13:49;;;;;;;2.58;0.50;;;;;;;23.92;23.29;102287.25;5035932;28;20654;-67
2021/07/22 07:16:15;;;;;;;2.97;1.02;;;;;;;21.92;26.79;102290.59;5040499;28;20028;-68
2021/07/22 07:18:40;;;;;;;2.00;0.90;;;;;;;22.29;26.66;102288.13;5043524;28;20044;-68
2021/07/22 07:21:06;;;;;;;4.43;0.77;;;;;;;24.79;22.64;102282.38;5037950;28;20509;-66
2021/07/22 07:23:32;;;;;;;2.10;0.65;;;;;;;23.94;24.43;102293.34;5039450;28;20612;-67
2021/07/22 07:25:58;;;;;;;2.38;0.98;;;;;;;22.34;26.45;102299.34;5039903;28;20033;-67
2021/07/22 07:28:24;;;;;;;1.60;0.73;;;;;;;21.65;27.65;102293.28;5044275;28;20047;-68
2021/07/22 07:30:49;;;;;;;3.58;0.75;;;;;;;21.23;27.50;102290.56;5038053;28;20401;-67
2021/07/22 07:33:15;;;;;;;3.20;0.88;;;;;;;20.63;29.14;102291.56;5036467;28;20029;-68
2021/07/22 07:35:40;;;;;;;1.58;0.65;;;;;;;20.51;29.60;102293.19;5040416;28;20489;-66
2021/07/22 07:38:06;;;;;;;1.02;0.70;;;;;;;20.31;29.25;102293.53;5044591;28;20402;-66
2021/07/22 07:40:32;;;;;;;0.90;0.55;;;;;;;19.93;29.94;102301.88;5031901;28;20033;-68
2021/07/22 07:43:00;;;;;;;5.25;0.90;;;;;;;20.30;29.70;102302.41;5039405;28;20044;-68
2021/07/22 07:45:25;;;;;;;2.13;0.80;;;;;;;20.59;29.93;102297.16;5036143;28;20037;-67
2021/07/22 07:47:52;;;;;;;1.80;0.65;;;;;;;20.74;29.60;102297.09;5030918;28;20055;-69
2021/07/22 07:50:18;;;;;;;7.60;0.80;;;;;;;20.82;28.86;102296.63;5042407;28;20039;-66
2021/07/22 07:52:44;;;;;;;5.32;0.90;;;;;;;20.74;29.72;102306.88;5039199;28;20096;-66
2021/07/22 07:55:11;;;;;;;1.00;0.68;;;;;;;20.23;29.81;102312.53;5039453;28;20497;-67
2021/07/22 07:57:37;;;;;;;1.52;1.17;;;;;;;19.83;30.63;102312.16;5060348;28;20036;-69
2021/07/22 08:00:06;;;;;;;2.20;0.68;;;;;;;19.75;30.92;102310.88;5055790;28;20057;-67
2021/07/22 08:02:38;;;;;;;3.35;0.80;;;;;;;19.56;31.09;102306.63;5040940;28;20398;-68
2021/07/22 08:05:04;;;;;;;1.90;0.90;;;;;;;19.65;30.65;102314.06;5044180;28;20340;-68
2021/07/22 08:07:29;;;;;;;1.15;0.60;;;;;;;19.53;30.74;102316.53;5041131;28;20025;-65
2021/07/22 08:09:57;;;;;;;2.50;0.60;;;;;;;19.61;30.06;102314.31;5042527;28;20121;-67
2021/07/22 08:12:23;;;;;;;2.95;0.60;;;;;;;20.13;28.84;102311.34;5041186;28;20032;-67
2021/07/22 08:14:48;;;;;;;1.83;1.10;;;;;;;21.51;27.77;102302.13;5040471;28;20068;-67
2021/07/22 08:17:19;;;;;;;3.08;0.70;;;;;;;24.93;21.96;102303.53;5038275;28;20090;-67
2021/07/22 08:19:44;;;;;;;4.53;0.50;;;;;;;28.11;19.97;102307.59;5032106;28;20116;-70
2021/07/22 08:22:13;;;;;;;2.90;0.88;;;;;;;28.98;19.08;102300.31;5039522;28;20044;-66
2021/07/22 08:24:39;;;;;;;1.27;0.47;;;;;;;27.42;18.93;102301.34;5042825;28;20073;-68
2021/07/22 08:27:06;;;;;;;3.65;0.82;;;;;;;24.97;22.38;102305.03;5038002;28;20046;-68
2021/07/22 08:29:32;;;;;;;2.22;0.40;;;;;;;24.22;23.46;102306.31;5032528;28;20054;-68
2021/07/22 08:31:57;;;;;;;2.28;0.50;;;;;;;22.98;24.46;102307.38;5040033;28;20062;-70
2021/07/22 08:34:24;;;;;;;2.25;0.50;;;;;;;22.02;25.63;102310.31;5038583;28;20106;-69
2021/07/22 08:36:50;;;;;;;1.30;0.45;;;;;;;22.01;26.27;102311.28;5035456;28;20036;-68
2021/07/22 08:39:16;;;;;;;1.85;0.70;;;;;;;23.14;25.29;102305.34;5036930;28;20045;-68
2021/07/22 08:41:46;;;;;;;3.30;0.70;;;;;;;24.68;23.05;102301.09;5036422;28;20045;-68
2021/07/22 08:44:13;;;;;;;3.07;0.30;;;;;;;26.83;20.02;102297.63;5035161;28;20039;-67
2021/07/22 08:46:40;;;;;;;0.88;0.57;;;;;;;27.69;18.66;102291.78;5035759;28;20291;-66
2021/07/22 08:49:06;;;;;;;4.70;0.70;;;;;;;26.62;19.86;102303.00;5035702;28;20044;-69
2021/07/22 08:51:32;;;;;;;1.98;0.57;;;;;;;26.54;19.96;102305.50;5030602;28;20369;-69
2021/07/22 08:54:02;;;;;;;2.83;0.70;;;;;;;25.11;21.43;102287.00;5036936;28;20067;-67
2021/07/22 08:56:28;;;;;;;3.83;0.77;;;;;;;24.12;24.83;102291.94;5033329;28;20044;-66
2021/07/22 08:58:56;;;;;;;3.53;0.60;;;;;;;23.91;24.90;102296.25;5035149;28;20150;-69
2021/07/22 09:01:24;;;;;;;1.90;0.80;;;;;;;22.63;26.96;102301.81;5032743;28;20041;-67
2021/07/22 09:03:50;;;;;;;2.47;0.80;;;;;;;21.83;27.09;102302.69;5037298;28;20273;-68
2021/07/22 09:06:16;;;;;;;1.25;0.60;;;;;;;21.48;27.35;102291.69;5043526;28;20037;-67
2021/07/22 09:08:42;;;;;;;1.42;0.60;;;;;;;21.42;27.91;102300.88;5037216;28;20021;-70
2021/07/22 09:11:11;;;;;;;5.95;1.02;;;;;;;21.07;28.08;102297.81;5037263;28;20103;-66
2021/07/22 09:13:37;;;;;;;1.67;0.70;;;;;;;21.68;27.13;102304.53;5040822;28;20037;-67
2021/07/22 09:16:04;;;;;;;2.80;0.52;;;;;;;23.23;24.48;102294.94;5041533;28;20522;-68
2021/07/22 09:18:35;;;;;;;1.05;0.60;;;;;;;23.53;24.37;102297.25;5036594;28;20048;-68
2021/07/22 09:21:20;;;;;;;1.70;0.40;;;;;;;23.08;25.52;102295.09;5034268;28;20407;-69
2021/07/22 09:24:04;;;;;;;2.55;0.77;;;;;;;24.23;23.26;102291.13;5039689;28;20074;-68
2021/07/22 09:26:35;;;;;;;4.88;0.50;;;;;;;23.38;24.50;102294.72;5035349;28;20052;-67
2021/07/22 09:29:04;;;;;;;3.10;0.35;;;;;;;22.39;25.81;102306.06;5036550;28;20428;-67
2021/07/22 09:31:33;;;;;;;1.60;0.50;;;;;;;21.99;26.11;102307.84;5035762;28;20282;-67
2021/07/22 09:34:01;;;;;;;3.80;0.83;;;;;;;22.71;25.33;102310.16;5024549;28;20028;-68
2021/07/22 09:36:27;;;;;;;2.70;0.40;;;;;;;23.47;24.19;102297.69;5037141;28;20036;-69
2021/07/22 09:38:52;;;;;;;1.83;0.60;;;;;;;23.86;24.18;102309.09;5034733;28;20440;-69
2021/07/22 09:41:24;;;;;;;1.70;0.55;;;;;;;24.41;24.39;102302.22;5035634;28;20431;-69
2021/07/22 09:43:50;;;;;;;4.38;0.40;;;;;;;24.59;23.40;102295.50;5034899;28;20048;-67
2021/07/22 09:46:16;;;;;;;0.85;0.40;;;;;;;25.02;22.60;102294.81;5032502;28;20128;-68
2021/07/22 09:49:08;;;;;;;2.28;0.52;;;;;;;25.18;22.89;102306.97;5035319;28;20043;-68
2021/07/22 09:51:37;;;;;;;2.63;0.50;;;;;;;23.87;24.43;102310.78;5039525;28;20219;-69
2021/07/22 09:54:13;;;;;;;2.90;0.50;;;;;;;22.94;25.26;102305.88;5038989;28;20040;-68
2021/07/22 09:56:40;;;;;;;1.98;0.45;;;;;;;22.46;26.34;102308.31;5035906;28;20051;-70
2021/07/22 09:59:08;;;;;;;2.80;0.60;;;;;;;22.46;26.85;102311.81;5037548;28;20040;-71
2021/07/22 10:02:03;;;;;;;5.38;0.60;;;;;;;22.59;26.03;102315.34;5039687;28;20352;-68
2021/07/22 10:04:31;;;;;;;2.47;1.10;;;;;;;22.74;26.09;102310.81;5035678;28;20045;-68
2021/07/22 10:06:59;;;;;;;5.07;0.52;;;;;;;22.48;26.60;102303.72;5037068;28;20037;-70
2021/07/22 10:09:27;;;;;;;2.17;0.40;;;;;;;22.61;27.21;102301.94;5034376;28;20076;-68
2021/07/22 10:11:53;;;;;;;1.23;0.43;;;;;;;23.23;24.96;102298.50;5040758;28;20068;-67
2021/07/22 10:14:20;;;;;;;0.95;0.47;;;;;;;24.21;25.28;102304.63;5041146;28;20041;-67
2021/07/22 10:16:48;;;;;;;2.45;0.35;;;;;;;24.04;23.51;102302.38;5037272;28;20048;-69
2021/07/22 10:19:15;;;;;;;0.75;0.60;;;;;;;24.90;24.27;102302.91;5030073;28;20490;-70
2021/07/22 10:21:43;;;;;;;3.10;0.60;;;;;;;25.21;24.71;102309.38;5030360;28;20049;-68
2021/07/22 10:24:09;;;;;;;1.55;0.40;;;;;;;24.86;24.42;102299.63;5030192;28;21478;-69
2021/07/22 10:26:43;;;;;;;1.17;0.40;;;;;;;24.09;24.98;102307.38;5045346;28;20403;-69
2021/07/22 10:29:08;;;;;;;1.75;1.13;;;;;;;24.31;23.81;102293.22;5025334;28;20157;-71
2021/07/22 10:31:42;;;;;;;2.58;0.38;;;;;;;23.88;25.04;102301.81;5045677;28;20025;-68
2021/07/22 10:34:11;;;;;;;2.95;0.50;;;;;;;24.11;25.07;102295.59;5032876;28;20371;-69
2021/07/22 10:36:40;;;;;;;0.75;0.40;;;;;;;23.94;24.66;102296.00;5037125;28;20416;-69
2021/07/22 10:39:07;;;;;;;0.98;0.40;;;;;;;23.50;25.13;102298.34;5030971;28;20057;-67
2021/07/22 10:41:37;;;;;;;0.75;0.35;;;;;;;23.93;24.19;102295.16;5037035;28;20603;-68
2021/07/22 10:44:23;;;;;;;2.20;0.43;;;;;;;24.12;24.66;102291.09;5033111;28;20041;-67
2021/07/22 10:46:57;;;;;;;2.72;0.65;;;;;;;23.58;24.37;102284.41;5029983;28;20113;-68
2021/07/22 10:49:42;;;;;;;2.03;0.70;;;;;;;24.16;24.65;102289.91;5030293;28;20041;-69
2021/07/22 10:52:12;;;;;;;0.57;0.47;;;;;;;23.46;24.59;102296.84;5032689;28;20508;-68
2021/07/22 10:54:40;;;;;;;3.45;1.05;;;;;;;24.14;23.69;102290.00;5034669;28;20103;-68
2021/07/22 10:57:06;;;;;;;2.45;0.30;;;;;;;24.02;23.55;102294.47;5030304;28;20053;-71
2021/07/22 10:59:55;;;;;;;2.08;0.40;;;;;;;24.21;23.54;102282.38;5037223;28;20612;-67
2021/07/22 11:02:40;;;;;;;1.40;0.40;;;;;;;24.40;23.71;102282.69;5036206;28;20586;-68
2021/07/22 11:05:07;;;;;;;2.75;0.68;;;;;;;23.91;24.13;102282.91;5034465;28;20041;-69
2021/07/22 11:07:32;;;;;;;1.65;0.50;;;;;;;23.11;25.08;102283.34;5030577;28;20025;-68
2021/07/22 11:09:58;;;;;;;0.98;0.40;;;;;;;23.49;24.71;102285.94;5034596;28;20405;-70
2021/07/22 11:12:33;;;;;;;1.33;0.68;;;;;;;24.28;23.04;102282.75;5037989;28;20397;-69
2021/07/22 11:15:02;;;;;;;1.42;0.43;;;;;;;25.25;23.11;102274.22;5031901;28;20059;-68
2021/07/22 11:17:32;;;;;;;2.33;0.35;;;;;;;23.30;24.53;102273.09;5032295;28;20387;-71
2021/07/22 11:20:23;;;;;;;0.82;0.30;;;;;;;23.38;25.62;102264.53;5028427;28;20039;-70
2021/07/22 11:22:53;;;;;;;3.35;0.30;;;;;;;23.88;24.60;102275.09;5035856;28;20037;-70
2021/07/22 11:25:18;;;;;;;3.28;0.65;;;;;;;24.93;23.26;102267.91;5039452;28;20036;-70
2021/07/22 11:27:48;;;;;;;2.60;0.40;;;;;;;25.16;23.41;102274.13;5044388;28;20029;-67
2021/07/22 11:30:16;;;;;;;0.68;0.38;;;;;;;25.32;23.14;102269.22;5028170;28;20482;-68
2021/07/22 11:32:41;;;;;;;0.85;0.20;;;;;;;25.27;22.69;102260.72;5050376;28;20048;-69
2021/07/22 11:35:08;;;;;;;1.85;0.30;;;;;;;25.37;22.43;102260.81;5036545;28;20032;-71
2021/07/22 11:37:34;;;;;;;1.63;0.20;;;;;;;25.30;23.12;102257.78;5040592;28;20077;-68